sensor_id;sensor_type;location;lat;lon;timestamp;P1;durP1;ratioP1;P2;durP2;ratioP2
48550;SDS011;34397;51.176;6.738;2023-12-20T00:00:24;7.32;;;3.80;;
48550;SDS011;34397;51.176;6.738;2023-12-20T00:02:56;9.75;;;4.28;;
48550;SDS011;34397;51.176;6.738;2023-12-20T00:05:29;19.92;;;5.40;;
48550;SDS011;34397;51.176;6.738;2023-12-20T00:08:02;6.82;;;3.22;;
48550;SDS011;34397;51.176;6.738;2023-12-20T00:10:35;7.13;;;3.05;;
48550;SDS011;34397;51.176;6.738;2023-12-20T00:13:07;5.70;;;2.85;;
48550;SDS011;34397;51.176;6.738;2023-12-20T00:15:39;7.57;;;2.80;;
48550;SDS011;34397;51.176;6.738;2023-12-20T00:18:11;8.02;;;2.72;;
48550;SDS011;34397;51.176;6.738;2023-12-20T00:20:44;6.15;;;2.78;;
48550;SDS011;34397;51.176;6.738;2023-12-20T00:23:16;5.05;;;2.55;;
48550;SDS011;34397;51.176;6.738;2023-12-20T00:25:48;6.75;;;3.20;;
48550;SDS011;34397;51.176;6.738;2023-12-20T00:28:20;5.28;;;3.13;;
48550;SDS011;34397;51.176;6.738;2023-12-20T00:30:52;4.72;;;3.08;;
48550;SDS011;34397;51.176;6.738;2023-12-20T00:33:24;9.43;;;3.35;;
48550;SDS011;34397;51.176;6.738;2023-12-20T00:35:57;7.97;;;3.33;;
48550;SDS011;34397;51.176;6.738;2023-12-20T00:38:29;7.63;;;4.13;;
48550;SDS011;34397;51.176;6.738;2023-12-20T00:41:01;8.27;;;4.63;;
48550;SDS011;34397;51.176;6.738;2023-12-20T00:43:34;11.27;;;4.75;;
48550;SDS011;34397;51.176;6.738;2023-12-20T00:46:05;8.38;;;5.32;;
48550;SDS011;34397;51.176;6.738;2023-12-20T00:48:37;8.68;;;4.88;;
48550;SDS011;34397;51.176;6.738;2023-12-20T00:51:13;9.88;;;4.70;;
48550;SDS011;34397;51.176;6.738;2023-12-20T00:53:45;11.55;;;5.32;;
48550;SDS011;34397;51.176;6.738;2023-12-20T00:56:19;11.35;;;5.38;;
48550;SDS011;34397;51.176;6.738;2023-12-20T00:58:51;15.45;;;5.50;;
48550;SDS011;34397;51.176;6.738;2023-12-20T01:01:23;10.82;;;5.47;;
48550;SDS011;34397;51.176;6.738;2023-12-20T01:03:55;11.25;;;4.80;;
48550;SDS011;34397;51.176;6.738;2023-12-20T01:06:28;11.27;;;5.63;;
48550;SDS011;34397;51.176;6.738;2023-12-20T01:09:00;12.98;;;5.35;;
48550;SDS011;34397;51.176;6.738;2023-12-20T01:11:31;9.15;;;5.65;;
48550;SDS011;34397;51.176;6.738;2023-12-20T01:14:03;11.65;;;6.60;;
48550;SDS011;34397;51.176;6.738;2023-12-20T01:16:35;18.85;;;7.70;;
48550;SDS011;34397;51.176;6.738;2023-12-20T01:19:07;12.27;;;7.38;;
48550;SDS011;34397;51.176;6.738;2023-12-20T01:21:40;16.02;;;8.23;;
48550;SDS011;34397;51.176;6.738;2023-12-20T01:24:12;13.73;;;7.75;;
48550;SDS011;34397;51.176;6.738;2023-12-20T01:26:44;19.13;;;10.57;;
48550;SDS011;34397;51.176;6.738;2023-12-20T01:29:16;16.10;;;8.75;;
48550;SDS011;34397;51.176;6.738;2023-12-20T01:31:48;20.45;;;13.45;;
48550;SDS011;34397;51.176;6.738;2023-12-20T01:34:20;16.10;;;10.10;;
48550;SDS011;34397;51.176;6.738;2023-12-20T01:36:53;17.88;;;10.68;;
48550;SDS011;34397;51.176;6.738;2023-12-20T01:39:25;21.52;;;9.80;;
48550;SDS011;34397;51.176;6.738;2023-12-20T01:41:57;28.05;;;11.85;;
48550;SDS011;34397;51.176;6.738;2023-12-20T01:44:29;24.92;;;10.68;;
48550;SDS011;34397;51.176;6.738;2023-12-20T01:47:01;16.70;;;8.75;;
48550;SDS011;34397;51.176;6.738;2023-12-20T01:49:33;17.95;;;9.10;;
48550;SDS011;34397;51.176;6.738;2023-12-20T01:52:06;17.25;;;8.63;;
48550;SDS011;34397;51.176;6.738;2023-12-20T01:54:39;21.92;;;8.75;;
48550;SDS011;34397;51.176;6.738;2023-12-20T01:57:12;13.75;;;7.63;;
48550;SDS011;34397;51.176;6.738;2023-12-20T01:59:45;20.05;;;7.38;;
48550;SDS011;34397;51.176;6.738;2023-12-20T02:02:16;24.15;;;7.68;;
48550;SDS011;34397;51.176;6.738;2023-12-20T02:04:49;18.98;;;7.43;;
48550;SDS011;34397;51.176;6.738;2023-12-20T02:09:55;14.52;;;6.85;;
48550;SDS011;34397;51.176;6.738;2023-12-20T02:12:27;17.92;;;6.68;;
48550;SDS011;34397;51.176;6.738;2023-12-20T02:14:59;19.73;;;7.20;;
48550;SDS011;34397;51.176;6.738;2023-12-20T02:17:31;15.55;;;6.72;;
48550;SDS011;34397;51.176;6.738;2023-12-20T02:20:04;18.05;;;7.88;;
48550;SDS011;34397;51.176;6.738;2023-12-20T02:22:39;12.63;;;5.95;;
48550;SDS011;34397;51.176;6.738;2023-12-20T02:25:10;12.15;;;5.55;;
48550;SDS011;34397;51.176;6.738;2023-12-20T02:27:42;17.58;;;5.82;;
48550;SDS011;34397;51.176;6.738;2023-12-20T02:30:14;16.13;;;5.97;;
48550;SDS011;34397;51.176;6.738;2023-12-20T02:32:46;11.27;;;5.22;;
48550;SDS011;34397;51.176;6.738;2023-12-20T02:35:19;16.67;;;5.80;;
48550;SDS011;34397;51.176;6.738;2023-12-20T02:37:52;13.15;;;4.97;;
48550;SDS011;34397;51.176;6.738;2023-12-20T02:40:24;17.13;;;4.25;;
48550;SDS011;34397;51.176;6.738;2023-12-20T02:42:56;14.88;;;3.97;;
48550;SDS011;34397;51.176;6.738;2023-12-20T02:45:28;9.88;;;3.28;;
48550;SDS011;34397;51.176;6.738;2023-12-20T02:48:00;15.85;;;3.15;;
48550;SDS011;34397;51.176;6.738;2023-12-20T02:50:32;12.70;;;3.40;;
48550;SDS011;34397;51.176;6.738;2023-12-20T02:53:06;15.32;;;3.33;;
48550;SDS011;34397;51.176;6.738;2023-12-20T02:55:38;9.27;;;2.92;;
48550;SDS011;34397;51.176;6.738;2023-12-20T02:58:10;11.77;;;3.30;;
48550;SDS011;34397;51.176;6.738;2023-12-20T03:00:42;14.13;;;3.00;;
48550;SDS011;34397;51.176;6.738;2023-12-20T03:03:14;19.40;;;3.25;;
48550;SDS011;34397;51.176;6.738;2023-12-20T03:05:46;11.23;;;2.70;;
48550;SDS011;34397;51.176;6.738;2023-12-20T03:08:19;14.73;;;2.70;;
48550;SDS011;34397;51.176;6.738;2023-12-20T03:10:51;16.65;;;3.28;;
48550;SDS011;34397;51.176;6.738;2023-12-20T03:13:23;13.80;;;2.50;;
48550;SDS011;34397;51.176;6.738;2023-12-20T03:15:55;15.38;;;2.70;;
48550;SDS011;34397;51.176;6.738;2023-12-20T03:18:27;14.02;;;3.58;;
48550;SDS011;34397;51.176;6.738;2023-12-20T03:20:58;14.27;;;2.92;;
48550;SDS011;34397;51.176;6.738;2023-12-20T03:23:32;21.33;;;3.22;;
48550;SDS011;34397;51.176;6.738;2023-12-20T03:26:05;15.55;;;2.72;;
48550;SDS011;34397;51.176;6.738;2023-12-20T03:28:38;12.43;;;2.50;;
48550;SDS011;34397;51.176;6.738;2023-12-20T03:31:10;10.15;;;2.95;;
48550;SDS011;34397;51.176;6.738;2023-12-20T03:33:42;17.05;;;3.05;;
48550;SDS011;34397;51.176;6.738;2023-12-20T03:36:14;15.70;;;2.58;;
48550;SDS011;34397;51.176;6.738;2023-12-20T03:38:48;13.55;;;2.70;;
48550;SDS011;34397;51.176;6.738;2023-12-20T03:41:19;15.65;;;2.90;;
48550;SDS011;34397;51.176;6.738;2023-12-20T03:43:51;15.07;;;2.72;;
48550;SDS011;34397;51.176;6.738;2023-12-20T03:46:23;10.93;;;3.28;;
48550;SDS011;34397;51.176;6.738;2023-12-20T03:48:55;13.95;;;2.42;;
48550;SDS011;34397;51.176;6.738;2023-12-20T03:51:27;9.30;;;2.55;;
48550;SDS011;34397;51.176;6.738;2023-12-20T03:54:00;15.93;;;3.03;;
48550;SDS011;34397;51.176;6.738;2023-12-20T03:56:33;15.77;;;2.90;;
48550;SDS011;34397;51.176;6.738;2023-12-20T03:59:05;17.83;;;3.28;;
48550;SDS011;34397;51.176;6.738;2023-12-20T04:01:36;11.82;;;2.92;;
48550;SDS011;34397;51.176;6.738;2023-12-20T04:04:08;13.50;;;3.15;;
48550;SDS011;34397;51.176;6.738;2023-12-20T04:06:40;10.68;;;2.55;;
48550;SDS011;34397;51.176;6.738;2023-12-20T04:09:14;12.18;;;3.05;;
48550;SDS011;34397;51.176;6.738;2023-12-20T04:11:46;11.30;;;3.08;;
48550;SDS011;34397;51.176;6.738;2023-12-20T04:14:18;10.52;;;3.10;;
48550;SDS011;34397;51.176;6.738;2023-12-20T04:16:49;10.10;;;2.72;;
48550;SDS011;34397;51.176;6.738;2023-12-20T04:19:21;17.70;;;3.38;;
48550;SDS011;34397;51.176;6.738;2023-12-20T04:21:53;17.45;;;3.17;;
48550;SDS011;34397;51.176;6.738;2023-12-20T04:24:26;15.32;;;3.20;;
48550;SDS011;34397;51.176;6.738;2023-12-20T04:26:58;14.98;;;3.13;;
48550;SDS011;34397;51.176;6.738;2023-12-20T04:29:30;13.68;;;3.70;;
48550;SDS011;34397;51.176;6.738;2023-12-20T04:32:02;16.33;;;3.67;;
48550;SDS011;34397;51.176;6.738;2023-12-20T04:34:35;16.00;;;3.65;;
48550;SDS011;34397;51.176;6.738;2023-12-20T04:37:07;19.08;;;3.85;;
48550;SDS011;34397;51.176;6.738;2023-12-20T04:39:41;13.82;;;3.92;;
48550;SDS011;34397;51.176;6.738;2023-12-20T04:42:12;13.60;;;3.72;;
48550;SDS011;34397;51.176;6.738;2023-12-20T04:44:44;15.75;;;3.13;;
48550;SDS011;34397;51.176;6.738;2023-12-20T04:47:16;12.48;;;3.58;;
48550;SDS011;34397;51.176;6.738;2023-12-20T04:49:48;13.90;;;3.92;;
48550;SDS011;34397;51.176;6.738;2023-12-20T04:52:20;14.70;;;3.90;;
48550;SDS011;34397;51.176;6.738;2023-12-20T04:54:53;15.30;;;3.78;;
48550;SDS011;34397;51.176;6.738;2023-12-20T04:57:25;15.30;;;4.00;;
48550;SDS011;34397;51.176;6.738;2023-12-20T04:59:57;13.35;;;3.85;;
48550;SDS011;34397;51.176;6.738;2023-12-20T05:02:29;19.48;;;4.63;;
48550;SDS011;34397;51.176;6.738;2023-12-20T05:05:01;13.35;;;3.55;;
48550;SDS011;34397;51.176;6.738;2023-12-20T05:07:33;15.85;;;3.70;;
48550;SDS011;34397;51.176;6.738;2023-12-20T05:10:06;12.75;;;3.33;;
48550;SDS011;34397;51.176;6.738;2023-12-20T05:12:39;14.93;;;3.90;;
48550;SDS011;34397;51.176;6.738;2023-12-20T05:15:11;15.65;;;3.88;;
48550;SDS011;34397;51.176;6.738;2023-12-20T05:17:43;14.07;;;3.58;;
48550;SDS011;34397;51.176;6.738;2023-12-20T05:20:15;16.10;;;3.58;;
48550;SDS011;34397;51.176;6.738;2023-12-20T05:22:47;19.85;;;3.92;;
48550;SDS011;34397;51.176;6.738;2023-12-20T05:25:20;13.30;;;4.05;;
48550;SDS011;34397;51.176;6.738;2023-12-20T05:27:52;16.33;;;3.40;;
48550;SDS011;34397;51.176;6.738;2023-12-20T05:30:24;15.32;;;3.40;;
48550;SDS011;34397;51.176;6.738;2023-12-20T05:35:28;16.80;;;3.33;;
48550;SDS011;34397;51.176;6.738;2023-12-20T05:38:00;23.40;;;4.53;;
48550;SDS011;34397;51.176;6.738;2023-12-20T05:40:33;21.13;;;3.50;;
48550;SDS011;34397;51.176;6.738;2023-12-20T05:43:05;16.27;;;3.78;;
48550;SDS011;34397;51.176;6.738;2023-12-20T05:45:37;18.33;;;3.80;;
48550;SDS011;34397;51.176;6.738;2023-12-20T05:48:09;15.00;;;3.45;;
48550;SDS011;34397;51.176;6.738;2023-12-20T05:50:41;13.40;;;3.47;;
48550;SDS011;34397;51.176;6.738;2023-12-20T05:53:12;16.77;;;4.50;;
48550;SDS011;34397;51.176;6.738;2023-12-20T05:55:46;17.02;;;3.65;;
48550;SDS011;34397;51.176;6.738;2023-12-20T05:58:18;20.10;;;3.25;;
48550;SDS011;34397;51.176;6.738;2023-12-20T06:00:50;16.30;;;3.50;;
48550;SDS011;34397;51.176;6.738;2023-12-20T06:03:21;13.23;;;4.15;;
48550;SDS011;34397;51.176;6.738;2023-12-20T06:05:59;16.05;;;4.20;;
48550;SDS011;34397;51.176;6.738;2023-12-20T06:08:37;16.20;;;3.92;;
48550;SDS011;34397;51.176;6.738;2023-12-20T06:11:11;18.10;;;4.00;;
48550;SDS011;34397;51.176;6.738;2023-12-20T06:13:43;18.92;;;3.95;;
48550;SDS011;34397;51.176;6.738;2023-12-20T06:16:15;16.30;;;3.72;;
48550;SDS011;34397;51.176;6.738;2023-12-20T06:18:51;19.42;;;4.32;;
48550;SDS011;34397;51.176;6.738;2023-12-20T06:21:23;16.25;;;3.53;;
48550;SDS011;34397;51.176;6.738;2023-12-20T06:23:58;13.00;;;3.70;;
48550;SDS011;34397;51.176;6.738;2023-12-20T06:29:04;14.75;;;3.88;;
48550;SDS011;34397;51.176;6.738;2023-12-20T06:31:36;14.15;;;3.83;;
48550;SDS011;34397;51.176;6.738;2023-12-20T06:34:08;20.88;;;4.38;;
48550;SDS011;34397;51.176;6.738;2023-12-20T06:36:40;16.83;;;4.20;;
48550;SDS011;34397;51.176;6.738;2023-12-20T06:39:12;24.15;;;4.50;;
48550;SDS011;34397;51.176;6.738;2023-12-20T06:41:45;19.70;;;4.15;;
48550;SDS011;34397;51.176;6.738;2023-12-20T06:44:17;18.38;;;4.30;;
48550;SDS011;34397;51.176;6.738;2023-12-20T06:46:49;22.15;;;4.20;;
48550;SDS011;34397;51.176;6.738;2023-12-20T06:49:21;25.42;;;4.63;;
48550;SDS011;34397;51.176;6.738;2023-12-20T06:51:53;12.68;;;4.13;;
48550;SDS011;34397;51.176;6.738;2023-12-20T06:54:25;17.20;;;3.70;;
48550;SDS011;34397;51.176;6.738;2023-12-20T06:56:58;18.42;;;4.00;;
48550;SDS011;34397;51.176;6.738;2023-12-20T06:59:30;15.23;;;3.80;;
48550;SDS011;34397;51.176;6.738;2023-12-20T07:02:02;21.42;;;4.60;;
48550;SDS011;34397;51.176;6.738;2023-12-20T07:04:41;12.90;;;3.65;;
48550;SDS011;34397;51.176;6.738;2023-12-20T07:07:14;14.60;;;4.00;;
48550;SDS011;34397;51.176;6.738;2023-12-20T07:09:46;13.27;;;3.70;;
48550;SDS011;34397;51.176;6.738;2023-12-20T07:12:20;12.98;;;3.67;;
48550;SDS011;34397;51.176;6.738;2023-12-20T07:14:54;15.93;;;3.70;;
48550;SDS011;34397;51.176;6.738;2023-12-20T07:17:27;13.63;;;3.67;;
48550;SDS011;34397;51.176;6.738;2023-12-20T07:19:59;13.40;;;3.90;;
48550;SDS011;34397;51.176;6.738;2023-12-20T07:22:33;17.05;;;4.05;;
48550;SDS011;34397;51.176;6.738;2023-12-20T07:25:05;18.38;;;4.00;;
48550;SDS011;34397;51.176;6.738;2023-12-20T07:27:44;21.63;;;4.28;;
48550;SDS011;34397;51.176;6.738;2023-12-20T07:30:16;23.27;;;4.65;;
48550;SDS011;34397;51.176;6.738;2023-12-20T07:32:48;21.70;;;4.13;;
48550;SDS011;34397;51.176;6.738;2023-12-20T07:35:20;18.33;;;4.15;;
48550;SDS011;34397;51.176;6.738;2023-12-20T07:37:52;18.13;;;4.70;;
48550;SDS011;34397;51.176;6.738;2023-12-20T07:40:24;18.08;;;4.57;;
48550;SDS011;34397;51.176;6.738;2023-12-20T07:42:57;19.08;;;4.90;;
48550;SDS011;34397;51.176;6.738;2023-12-20T07:45:29;18.77;;;4.40;;
48550;SDS011;34397;51.176;6.738;2023-12-20T07:48:01;16.45;;;4.35;;
48550;SDS011;34397;51.176;6.738;2023-12-20T07:50:33;20.70;;;4.68;;
48550;SDS011;34397;51.176;6.738;2023-12-20T07:53:05;16.10;;;4.88;;
48550;SDS011;34397;51.176;6.738;2023-12-20T07:55:37;24.80;;;4.43;;
48550;SDS011;34397;51.176;6.738;2023-12-20T07:58:11;11.98;;;3.90;;
48550;SDS011;34397;51.176;6.738;2023-12-20T08:00:43;16.10;;;4.03;;
48550;SDS011;34397;51.176;6.738;2023-12-20T08:03:15;15.93;;;3.70;;
48550;SDS011;34397;51.176;6.738;2023-12-20T08:05:47;16.35;;;4.32;;
48550;SDS011;34397;51.176;6.738;2023-12-20T08:08:19;19.52;;;4.43;;
48550;SDS011;34397;51.176;6.738;2023-12-20T08:10:51;21.27;;;4.30;;
48550;SDS011;34397;51.176;6.738;2023-12-20T08:13:24;20.42;;;4.55;;
48550;SDS011;34397;51.176;6.738;2023-12-20T08:15:56;16.10;;;4.15;;
48550;SDS011;34397;51.176;6.738;2023-12-20T08:18:28;13.88;;;3.45;;
48550;SDS011;34397;51.176;6.738;2023-12-20T08:21:00;23.33;;;4.03;;
48550;SDS011;34397;51.176;6.738;2023-12-20T08:23:32;21.95;;;5.00;;
48550;SDS011;34397;51.176;6.738;2023-12-20T08:26:04;13.93;;;3.70;;
48550;SDS011;34397;51.176;6.738;2023-12-20T08:33:45;15.82;;;3.30;;
48550;SDS011;34397;51.176;6.738;2023-12-20T08:36:18;16.30;;;3.95;;
48550;SDS011;34397;51.176;6.738;2023-12-20T08:38:51;14.93;;;3.47;;
48550;SDS011;34397;51.176;6.738;2023-12-20T08:41:23;15.23;;;4.05;;
48550;SDS011;34397;51.176;6.738;2023-12-20T08:43:56;19.55;;;3.83;;
48550;SDS011;34397;51.176;6.738;2023-12-20T08:46:28;18.98;;;4.25;;
48550;SDS011;34397;51.176;6.738;2023-12-20T08:49:00;14.70;;;3.92;;
48550;SDS011;34397;51.176;6.738;2023-12-20T08:51:32;21.02;;;4.13;;
48550;SDS011;34397;51.176;6.738;2023-12-20T08:54:04;18.40;;;3.78;;
48550;SDS011;34397;51.176;6.738;2023-12-20T08:56:37;18.83;;;3.70;;
48550;SDS011;34397;51.176;6.738;2023-12-20T08:59:11;19.02;;;3.85;;
48550;SDS011;34397;51.176;6.738;2023-12-20T09:01:43;16.23;;;3.80;;
48550;SDS011;34397;51.176;6.738;2023-12-20T09:04:15;11.18;;;3.35;;
48550;SDS011;34397;51.176;6.738;2023-12-20T09:06:46;20.40;;;4.05;;
48550;SDS011;34397;51.176;6.738;2023-12-20T09:09:18;12.00;;;2.95;;
48550;SDS011;34397;51.176;6.738;2023-12-20T09:11:50;22.95;;;4.25;;
48550;SDS011;34397;51.176;6.738;2023-12-20T09:14:23;12.85;;;3.53;;
48550;SDS011;34397;51.176;6.738;2023-12-20T09:16:55;15.98;;;3.35;;
48550;SDS011;34397;51.176;6.738;2023-12-20T09:19:27;20.02;;;3.58;;
48550;SDS011;34397;51.176;6.738;2023-12-20T09:22:00;15.90;;;3.00;;
48550;SDS011;34397;51.176;6.738;2023-12-20T09:24:33;17.08;;;3.05;;
48550;SDS011;34397;51.176;6.738;2023-12-20T09:27:05;19.48;;;3.50;;
48550;SDS011;34397;51.176;6.738;2023-12-20T09:29:38;14.40;;;3.20;;
48550;SDS011;34397;51.176;6.738;2023-12-20T09:32:10;17.98;;;3.60;;
48550;SDS011;34397;51.176;6.738;2023-12-20T09:34:42;13.38;;;2.85;;
48550;SDS011;34397;51.176;6.738;2023-12-20T09:37:14;13.98;;;2.90;;
48550;SDS011;34397;51.176;6.738;2023-12-20T09:39:46;11.25;;;2.85;;
48550;SDS011;34397;51.176;6.738;2023-12-20T09:42:21;19.13;;;3.50;;
48550;SDS011;34397;51.176;6.738;2023-12-20T09:44:59;18.33;;;3.88;;
48550;SDS011;34397;51.176;6.738;2023-12-20T09:47:33;15.85;;;3.53;;
48550;SDS011;34397;51.176;6.738;2023-12-20T09:50:06;14.98;;;3.05;;
48550;SDS011;34397;51.176;6.738;2023-12-20T09:52:39;13.65;;;3.03;;
48550;SDS011;34397;51.176;6.738;2023-12-20T09:55:12;14.95;;;2.70;;
48550;SDS011;34397;51.176;6.738;2023-12-20T09:57:45;16.63;;;2.83;;
48550;SDS011;34397;51.176;6.738;2023-12-20T10:00:18;15.98;;;3.38;;
48550;SDS011;34397;51.176;6.738;2023-12-20T10:02:53;15.63;;;2.85;;
48550;SDS011;34397;51.176;6.738;2023-12-20T10:05:29;14.45;;;2.80;;
48550;SDS011;34397;51.176;6.738;2023-12-20T10:08:02;15.52;;;3.10;;
48550;SDS011;34397;51.176;6.738;2023-12-20T10:10:35;16.33;;;3.10;;
48550;SDS011;34397;51.176;6.738;2023-12-20T10:13:07;15.70;;;2.50;;
48550;SDS011;34397;51.176;6.738;2023-12-20T10:15:42;17.70;;;2.72;;
48550;SDS011;34397;51.176;6.738;2023-12-20T10:18:14;14.63;;;2.67;;
48550;SDS011;34397;51.176;6.738;2023-12-20T10:20:47;16.30;;;3.35;;
48550;SDS011;34397;51.176;6.738;2023-12-20T10:23:19;12.35;;;2.50;;
48550;SDS011;34397;51.176;6.738;2023-12-20T10:25:55;18.00;;;3.90;;
48550;SDS011;34397;51.176;6.738;2023-12-20T10:28:28;15.38;;;2.90;;
48550;SDS011;34397;51.176;6.738;2023-12-20T10:31:06;10.55;;;2.28;;
48550;SDS011;34397;51.176;6.738;2023-12-20T10:33:38;12.10;;;2.95;;
48550;SDS011;34397;51.176;6.738;2023-12-20T10:36:11;13.57;;;2.55;;
48550;SDS011;34397;51.176;6.738;2023-12-20T10:38:43;18.55;;;3.47;;
48550;SDS011;34397;51.176;6.738;2023-12-20T10:41:17;12.27;;;2.55;;
48550;SDS011;34397;51.176;6.738;2023-12-20T10:43:56;15.73;;;3.22;;
48550;SDS011;34397;51.176;6.738;2023-12-20T10:46:31;16.30;;;2.65;;
48550;SDS011;34397;51.176;6.738;2023-12-20T10:49:05;15.40;;;2.75;;
48550;SDS011;34397;51.176;6.738;2023-12-20T10:51:38;17.65;;;3.03;;
48550;SDS011;34397;51.176;6.738;2023-12-20T10:54:10;14.73;;;2.90;;
48550;SDS011;34397;51.176;6.738;2023-12-20T10:56:42;12.90;;;3.00;;
48550;SDS011;34397;51.176;6.738;2023-12-20T10:59:15;12.75;;;2.55;;
48550;SDS011;34397;51.176;6.738;2023-12-20T11:01:53;17.05;;;2.63;;
48550;SDS011;34397;51.176;6.738;2023-12-20T11:04:28;14.73;;;3.20;;
48550;SDS011;34397;51.176;6.738;2023-12-20T11:07:13;15.27;;;2.60;;
48550;SDS011;34397;51.176;6.738;2023-12-20T11:09:56;11.82;;;2.67;;
48550;SDS011;34397;51.176;6.738;2023-12-20T11:12:33;12.20;;;2.70;;
48550;SDS011;34397;51.176;6.738;2023-12-20T11:15:09;13.52;;;2.85;;
48550;SDS011;34397;51.176;6.738;2023-12-20T11:17:45;12.63;;;2.67;;
48550;SDS011;34397;51.176;6.738;2023-12-20T11:20:17;17.55;;;2.95;;
48550;SDS011;34397;51.176;6.738;2023-12-20T11:22:52;13.70;;;2.47;;
48550;SDS011;34397;51.176;6.738;2023-12-20T11:25:26;13.57;;;3.10;;
48550;SDS011;34397;51.176;6.738;2023-12-20T11:28:07;19.17;;;3.40;;
48550;SDS011;34397;51.176;6.738;2023-12-20T11:30:41;12.15;;;2.47;;
48550;SDS011;34397;51.176;6.738;2023-12-20T11:33:18;10.15;;;2.60;;
48550;SDS011;34397;51.176;6.738;2023-12-20T11:35:55;8.07;;;2.45;;
48550;SDS011;34397;51.176;6.738;2023-12-20T11:38:27;11.52;;;2.58;;
48550;SDS011;34397;51.176;6.738;2023-12-20T11:41:07;15.55;;;3.03;;
48550;SDS011;34397;51.176;6.738;2023-12-20T11:43:39;22.15;;;3.65;;
48550;SDS011;34397;51.176;6.738;2023-12-20T11:46:11;17.02;;;2.75;;
48550;SDS011;34397;51.176;6.738;2023-12-20T11:48:44;16.65;;;3.33;;
48550;SDS011;34397;51.176;6.738;2023-12-20T11:51:17;16.23;;;2.95;;
48550;SDS011;34397;51.176;6.738;2023-12-20T11:53:51;14.13;;;2.80;;
48550;SDS011;34397;51.176;6.738;2023-12-20T11:56:23;13.32;;;2.80;;
48550;SDS011;34397;51.176;6.738;2023-12-20T11:58:55;8.43;;;2.25;;
48550;SDS011;34397;51.176;6.738;2023-12-20T12:01:37;7.78;;;1.98;;
48550;SDS011;34397;51.176;6.738;2023-12-20T12:04:10;9.65;;;2.40;;
48550;SDS011;34397;51.176;6.738;2023-12-20T12:06:42;14.27;;;2.83;;
48550;SDS011;34397;51.176;6.738;2023-12-20T12:09:15;13.27;;;2.85;;
48550;SDS011;34397;51.176;6.738;2023-12-20T12:11:48;13.27;;;2.97;;
48550;SDS011;34397;51.176;6.738;2023-12-20T12:14:20;14.45;;;2.83;;
48550;SDS011;34397;51.176;6.738;2023-12-20T12:16:55;14.23;;;2.80;;
48550;SDS011;34397;51.176;6.738;2023-12-20T12:19:29;11.95;;;3.20;;
48550;SDS011;34397;51.176;6.738;2023-12-20T12:22:05;8.13;;;2.45;;
48550;SDS011;34397;51.176;6.738;2023-12-20T12:24:40;12.93;;;2.72;;
48550;SDS011;34397;51.176;6.738;2023-12-20T12:27:12;14.38;;;3.08;;
48550;SDS011;34397;51.176;6.738;2023-12-20T12:29:59;13.77;;;2.85;;
48550;SDS011;34397;51.176;6.738;2023-12-20T12:32:33;12.30;;;2.53;;
48550;SDS011;34397;51.176;6.738;2023-12-20T12:35:07;15.30;;;2.90;;
48550;SDS011;34397;51.176;6.738;2023-12-20T12:37:40;11.30;;;2.60;;
48550;SDS011;34397;51.176;6.738;2023-12-20T12:40:13;12.60;;;2.72;;
48550;SDS011;34397;51.176;6.738;2023-12-20T12:42:47;8.65;;;2.83;;
48550;SDS011;34397;51.176;6.738;2023-12-20T12:45:19;18.73;;;2.63;;
48550;SDS011;34397;51.176;6.738;2023-12-20T12:47:51;12.88;;;2.55;;
48550;SDS011;34397;51.176;6.738;2023-12-20T12:50:26;12.38;;;2.80;;
48550;SDS011;34397;51.176;6.738;2023-12-20T12:52:58;14.70;;;3.63;;
48550;SDS011;34397;51.176;6.738;2023-12-20T12:55:30;16.33;;;3.38;;
48550;SDS011;34397;51.176;6.738;2023-12-20T12:58:02;17.23;;;3.45;;
48550;SDS011;34397;51.176;6.738;2023-12-20T13:00:35;16.15;;;3.15;;
48550;SDS011;34397;51.176;6.738;2023-12-20T13:03:06;13.88;;;3.25;;
48550;SDS011;34397;51.176;6.738;2023-12-20T13:05:40;16.55;;;3.80;;
48550;SDS011;34397;51.176;6.738;2023-12-20T13:08:12;12.68;;;3.63;;
48550;SDS011;34397;51.176;6.738;2023-12-20T13:10:44;17.48;;;3.13;;
48550;SDS011;34397;51.176;6.738;2023-12-20T13:13:16;13.00;;;3.42;;
48550;SDS011;34397;51.176;6.738;2023-12-20T13:15:48;13.75;;;3.38;;
48550;SDS011;34397;51.176;6.738;2023-12-20T13:18:24;13.73;;;3.58;;
48550;SDS011;34397;51.176;6.738;2023-12-20T13:20:58;11.15;;;3.17;;
48550;SDS011;34397;51.176;6.738;2023-12-20T13:23:29;15.00;;;3.40;;
48550;SDS011;34397;51.176;6.738;2023-12-20T13:26:01;16.40;;;3.78;;
48550;SDS011;34397;51.176;6.738;2023-12-20T13:28:33;16.60;;;3.90;;
48550;SDS011;34397;51.176;6.738;2023-12-20T13:31:05;11.85;;;3.40;;
48550;SDS011;34397;51.176;6.738;2023-12-20T13:33:37;20.42;;;4.85;;
48550;SDS011;34397;51.176;6.738;2023-12-20T13:36:10;17.15;;;3.92;;
48550;SDS011;34397;51.176;6.738;2023-12-20T13:38:42;16.00;;;3.90;;
48550;SDS011;34397;51.176;6.738;2023-12-20T13:41:14;15.25;;;3.38;;
48550;SDS011;34397;51.176;6.738;2023-12-20T13:43:46;12.38;;;3.22;;
48550;SDS011;34397;51.176;6.738;2023-12-20T13:46:18;14.02;;;3.22;;
48550;SDS011;34397;51.176;6.738;2023-12-20T13:48:50;12.48;;;3.10;;
48550;SDS011;34397;51.176;6.738;2023-12-20T13:51:23;15.65;;;4.18;;
48550;SDS011;34397;51.176;6.738;2023-12-20T13:53:55;14.93;;;3.20;;
48550;SDS011;34397;51.176;6.738;2023-12-20T13:56:29;13.25;;;4.20;;
48550;SDS011;34397;51.176;6.738;2023-12-20T13:59:01;16.17;;;3.17;;
48550;SDS011;34397;51.176;6.738;2023-12-20T14:01:32;11.80;;;3.33;;
48550;SDS011;34397;51.176;6.738;2023-12-20T14:04:05;12.15;;;3.92;;
48550;SDS011;34397;51.176;6.738;2023-12-20T14:06:39;10.95;;;3.00;;
48550;SDS011;34397;51.176;6.738;2023-12-20T14:09:12;12.13;;;3.55;;
48550;SDS011;34397;51.176;6.738;2023-12-20T14:11:44;15.00;;;3.20;;
48550;SDS011;34397;51.176;6.738;2023-12-20T14:14:16;8.60;;;2.90;;
48550;SDS011;34397;51.176;6.738;2023-12-20T14:16:48;14.75;;;3.38;;
48550;SDS011;34397;51.176;6.738;2023-12-20T14:19:19;14.32;;;2.80;;
48550;SDS011;34397;51.176;6.738;2023-12-20T14:21:53;10.50;;;3.00;;
48550;SDS011;34397;51.176;6.738;2023-12-20T14:24:24;10.60;;;2.90;;
48550;SDS011;34397;51.176;6.738;2023-12-20T14:26:56;15.23;;;2.67;;
48550;SDS011;34397;51.176;6.738;2023-12-20T14:29:28;10.57;;;3.00;;
48550;SDS011;34397;51.176;6.738;2023-12-20T14:32:00;11.43;;;3.05;;
48550;SDS011;34397;51.176;6.738;2023-12-20T14:34:33;14.45;;;3.40;;
48550;SDS011;34397;51.176;6.738;2023-12-20T14:37:06;13.40;;;3.30;;
48550;SDS011;34397;51.176;6.738;2023-12-20T14:39:38;15.77;;;3.70;;
48550;SDS011;34397;51.176;6.738;2023-12-20T14:42:11;11.65;;;3.53;;
48550;SDS011;34397;51.176;6.738;2023-12-20T14:47:15;15.45;;;3.53;;
48550;SDS011;34397;51.176;6.738;2023-12-20T14:49:47;10.13;;;2.85;;
48550;SDS011;34397;51.176;6.738;2023-12-20T14:52:20;11.15;;;3.30;;
48550;SDS011;34397;51.176;6.738;2023-12-20T14:54:53;12.57;;;3.40;;
48550;SDS011;34397;51.176;6.738;2023-12-20T14:57:25;8.25;;;2.67;;
48550;SDS011;34397;51.176;6.738;2023-12-20T14:59:57;10.75;;;3.10;;
48550;SDS011;34397;51.176;6.738;2023-12-20T15:02:29;12.43;;;3.25;;
48550;SDS011;34397;51.176;6.738;2023-12-20T15:07:35;10.07;;;3.17;;
48550;SDS011;34397;51.176;6.738;2023-12-20T15:10:08;12.45;;;3.45;;
48550;SDS011;34397;51.176;6.738;2023-12-20T15:12:40;10.98;;;2.97;;
48550;SDS011;34397;51.176;6.738;2023-12-20T15:15:12;19.23;;;3.53;;
48550;SDS011;34397;51.176;6.738;2023-12-20T15:17:44;16.02;;;3.50;;
48550;SDS011;34397;51.176;6.738;2023-12-20T15:20:16;13.05;;;3.05;;
48550;SDS011;34397;51.176;6.738;2023-12-20T15:22:49;12.27;;;3.10;;
48550;SDS011;34397;51.176;6.738;2023-12-20T15:25:21;10.63;;;3.17;;